Time;durP1;ratioP1;P1;durP2;ratioP2;P2;SDS_P1;SDS_P2;PMS_P1;PMS_P2;Temp;Humidity;BMP_temperature;BMP_pressure;BME280_temperature;BME280_humidity;BME280_pressure;Samples;Min_cycle;Max_cycle;Signal;HPM_P1;HPM_P2
2022/12/12 00:04:30;;;;;;;14.33;8.73;;;3.10;99.90;;;;;;10262713;28;20209;-84
2022/12/12 00:09:33;;;;;;;14.07;9.50;;;2.90;99.90;;;;;;10293445;28;20862;-84
2022/12/12 00:14:35;;;;;;;12.73;8.60;;;3.30;99.90;;;;;;10292660;28;20236;-84
2022/12/12 00:19:37;;;;;;;15.40;10.17;;;4.20;99.90;;;;;;10291467;28;20310;-84
2022/12/12 00:24:40;;;;;;;18.60;7.60;;;3.90;99.90;;;;;;10292567;28;20749;-84
2022/12/12 00:29:42;;;;;;;14.73;9.70;;;4.50;99.90;;;;;;10292371;28;20256;-84
2022/12/12 00:34:45;;;;;;;14.27;9.63;;;4.40;99.90;;;;;;10292020;28;20634;-84
2022/12/12 00:39:47;;;;;;;14.13;7.67;;;5.00;99.90;;;;;;10292703;28;20593;-84
2022/12/12 00:44:50;;;;;;;12.03;9.07;;;5.30;99.90;;;;;;10290812;28;20298;-84
2022/12/12 00:49:52;;;;;;;11.97;7.73;;;5.30;99.90;;;;;;10273369;28;20701;-84
2022/12/12 00:54:56;;;;;;;13.67;9.70;;;5.40;99.90;;;;;;10286482;28;20229;-84
2022/12/12 00:59:58;;;;;;;10.57;7.00;;;4.90;99.90;;;;;;10274439;28;20209;-85
2022/12/12 01:05:01;;;;;;;10.37;7.57;;;5.40;99.90;;;;;;10274104;28;20273;-84
2022/12/12 01:10:04;;;;;;;12.83;9.07;;;5.50;99.90;;;;;;10289954;28;20299;-84
2022/12/12 01:15:09;;;;;;;12.23;8.13;;;5.50;99.90;;;;;;10289171;28;20267;-84
2022/12/12 01:20:25;;;;;;;11.03;7.73;;;4.70;99.90;;;;;;10290328;28;20311;-84
2022/12/12 01:25:28;;;;;;;11.23;8.40;;;4.10;99.90;;;;;;10289431;28;20238;-85
2022/12/12 01:30:31;;;;;;;15.37;9.97;;;2.50;99.90;;;;;;10288055;28;20313;-85
2022/12/12 01:35:34;;;;;;;14.23;8.87;;;2.40;99.90;;;;;;10288563;28;20687;-85
2022/12/12 01:40:36;;;;;;;13.27;9.60;;;1.30;99.90;;;;;;10288823;28;20700;-85
2022/12/12 01:46:33;;;;;;;15.63;10.10;;;0.50;99.90;;;;;;10288815;28;20699;-85
2022/12/12 01:51:37;;;;;;;10.03;6.43;;;-0.10;99.90;;;;;;10205184;29;20267;-84
2022/12/12 01:56:42;;;;;;;14.80;9.80;;;0.00;99.90;;;;;;10201472;29;20271;-83
2022/12/12 02:01:45;;;;;;;14.50;10.80;;;0.40;99.90;;;;;;10204043;29;20234;-84
2022/12/12 02:06:49;;;;;;;18.60;11.37;;;-0.10;99.90;;;;;;10204054;29;20646;-84
2022/12/12 02:11:54;;;;;;;16.47;9.90;;;0.00;99.90;;;;;;10204736;29;20677;-84
2022/12/12 02:17:15;;;;;;;15.50;8.80;;;0.60;99.90;;;;;;10203261;29;20238;-84
2022/12/12 02:22:29;;;;;;;15.47;10.20;;;0.80;99.90;;;;;;10215973;28;20252;-84
2022/12/12 02:27:56;;;;;;;12.57;8.03;;;0.10;99.90;;;;;;10266485;28;20695;-84
2022/12/12 02:33:29;;;;;;;13.30;8.97;;;0.70;99.90;;;;;;10287516;28;20686;-84
2022/12/12 02:38:56;;;;;;;11.33;6.33;;;0.90;99.90;;;;;;10287499;28;20230;-84
2022/12/12 02:44:26;;;;;;;11.33;9.57;;;1.00;99.90;;;;;;10286911;28;20236;-84
2022/12/12 02:49:44;;;;;;;10.60;5.83;;;1.10;99.90;;;;;;10287557;28;20304;-84
2022/12/12 02:54:49;;;;;;;11.83;8.07;;;1.60;99.90;;;;;;10286924;28;20237;-84
2022/12/12 02:59:58;;;;;;;9.60;5.57;;;2.30;99.90;;;;;;10286895;28;20272;-84
2022/12/12 03:10:57;;;;;;;9.13;5.97;;;3.90;99.90;;;;;;10286490;28;20285;-84
2022/12/12 03:16:17;;;;;;;7.60;5.23;;;4.30;99.90;;;;;;10285579;28;20225;-84
2022/12/12 03:21:24;;;;;;;11.47;6.17;;;4.80;99.90;;;;;;10286573;28;20228;-84
2022/12/12 03:26:31;;;;;;;8.90;6.27;;;4.20;99.90;;;;;;10285303;28;20597;-84
2022/12/12 03:31:39;;;;;;;9.37;6.57;;;4.10;99.90;;;;;;10286430;28;20237;-84
2022/12/12 03:36:48;;;;;;;9.83;7.53;;;4.80;99.90;;;;;;10287893;28;20286;-83
2022/12/12 03:42:01;;;;;;;9.57;7.13;;;4.40;99.90;;;;;;10292329;28;20237;-84
2022/12/12 03:47:18;;;;;;;10.17;5.97;;;4.00;99.90;;;;;;10293218;28;20225;-84
2022/12/12 03:52:39;;;;;;;7.37;4.77;;;3.80;99.90;;;;;;10293841;28;20253;-84
2022/12/12 03:57:58;;;;;;;8.13;5.57;;;4.90;99.90;;;;;;10293205;28;20261;-84
2022/12/12 04:03:25;;;;;;;7.90;5.57;;;5.80;99.90;;;;;;10291916;28;20241;-84
2022/12/12 04:08:28;;;;;;;8.43;5.23;;;6.10;99.90;;;;;;10293458;28;20625;-84
2022/12/12 04:14:08;;;;;;;6.37;4.67;;;5.60;99.90;;;;;;10291805;28;20700;-84
2022/12/12 04:23:14;;;;;;;7.23;4.83;;;6.90;99.90;;;;;;10207915;29;20301;-84
2022/12/12 04:24:53;;;;;;;9.53;6.27;;;6.90;99.90;;;;;;10169165;29;20296;-84
2022/12/12 04:30:01;;;;;;;9.73;6.60;;;6.50;99.90;;;;;;10168888;29;20332;-84
2022/12/12 04:35:22;;;;;;;6.03;4.63;;;7.00;99.90;;;;;;10190699;29;20235;-84
2022/12/12 04:40:29;;;;;;;8.30;5.23;;;6.50;99.90;;;;;;10207486;29;20297;-84
2022/12/12 04:45:38;;;;;;;8.23;5.90;;;7.50;99.90;;;;;;10208023;29;20246;-84
2022/12/12 04:50:47;;;;;;;6.47;4.07;;;7.20;99.90;;;;;;10229407;28;20265;-84
2022/12/12 04:55:55;;;;;;;9.53;6.33;;;7.10;99.90;;;;;;10290552;28;20212;-84
2022/12/12 05:01:13;;;;;;;10.13;5.43;;;6.00;99.90;;;;;;10290368;28;20269;-84
2022/12/12 05:06:20;;;;;;;10.53;7.00;;;7.00;99.90;;;;;;10289045;28;20255;-84
2022/12/12 05:11:23;;;;;;;6.83;5.33;;;6.50;99.60;;;;;;10289036;28;20281;-84
2022/12/12 05:16:34;;;;;;;9.27;7.30;;;;;;;;;;10290315;28;20223;-84
2022/12/12 05:21:37;;;;;;;7.20;5.20;;;4.60;99.90;;;;;;10289418;28;20281;-84
2022/12/12 05:26:40;;;;;;;6.23;4.63;;;4.50;99.90;;;;;;10288898;28;20236;-84
2022/12/12 05:31:42;;;;;;;10.47;5.70;;;5.70;99.90;;;;;;10286035;28;20256;-85
2022/12/12 05:36:45;;;;;;;8.67;6.73;;;5.00;99.90;;;;;;10275411;28;20689;-84
2022/12/12 05:41:47;;;;;;;7.07;4.63;;;5.60;99.90;;;;;;10288616;28;20299;-84
2022/12/12 05:46:49;;;;;;;7.17;4.43;;;6.10;99.90;;;;;;10303225;28;20210;-84
2022/12/12 05:51:52;;;;;;;8.30;4.90;;;6.10;99.90;;;;;;10288666;28;20304;-84
2022/12/12 05:56:54;;;;;;;6.00;4.53;;;7.00;99.90;;;;;;10287085;28;20693;-83
2022/12/12 06:01:57;;;;;;;7.50;5.07;;;6.40;99.90;;;;;;10287445;28;20244;-83
2022/12/12 06:06:59;;;;;;;8.63;5.87;;;6.90;99.90;;;;;;10288655;28;20208;-84
2022/12/12 06:12:02;;;;;;;6.00;4.50;;;5.40;99.90;;;;;;10288398;28;20368;-84
2022/12/12 06:17:05;;;;;;;8.57;5.20;;;6.20;99.90;;;;;;10286167;28;20659;-84
2022/12/12 06:22:07;;;;;;;3.70;3.30;;;7.00;99.90;;;;;;10287295;28;20753;-85
2022/12/12 06:27:09;;;;;;;4.40;3.63;;;6.60;99.90;;;;;;10286497;28;20295;-85
2022/12/12 06:32:12;;;;;;;10.47;8.40;;;6.50;99.90;;;;;;10288307;28;20625;-83
2022/12/12 06:37:14;;;;;;;15.63;7.30;;;3.20;99.90;;;;;;10286538;28;20245;-84
2022/12/12 06:42:18;;;;;;;12.50;8.67;;;2.00;99.90;;;;;;10287196;28;20261;-83
2022/12/12 06:47:21;;;;;;;14.10;5.13;;;1.00;99.90;;;;;;10286127;28;20237;-89
2022/12/12 06:52:23;;;;;;;9.27;5.17;;;2.90;99.90;;;;;;10283178;28;20245;-89
2022/12/12 06:57:26;;;;;;;7.93;4.97;;;5.30;99.90;;;;;;10287067;28;20236;-89
2022/12/12 07:02:28;;;;;;;8.47;5.20;;;6.60;99.90;;;;;;10285224;28;20249;-89
2022/12/12 07:07:31;;;;;;;7.70;6.00;;;7.00;98.60;;;;;;10287494;28;20234;-89
2022/12/12 07:12:34;;;;;;;9.87;5.50;;;7.10;97.00;;;;;;10290149;28;20275;-89
2022/12/12 07:17:36;;;;;;;6.20;5.27;;;6.90;97.30;;;;;;10293996;28;20290;-89
2022/12/12 07:22:39;;;;;;;8.37;5.43;;;7.40;98.20;;;;;;10277365;28;20309;-89
2022/12/12 07:27:41;;;;;;;10.07;6.60;;;7.70;96.70;;;;;;10294076;28;20209;-89
2022/12/12 07:32:44;;;;;;;11.17;6.27;;;7.40;96.10;;;;;;10285810;28;20294;-88
2022/12/12 07:37:46;;;;;;;8.80;5.47;;;5.90;94.90;;;;;;10289658;28;20234;-89
2022/12/12 07:42:48;;;;;;;16.43;10.03;;;5.50;99.90;;;;;;10294780;28;20267;-89
2022/12/12 07:47:52;;;;;;;12.03;5.50;;;6.40;98.50;;;;;;10291886;28;20249;-89
2022/12/12 07:52:54;;;;;;;6.27;4.43;;;6.60;99.90;;;;;;10292475;28;20315;-89
2022/12/12 07:57:57;;;;;;;7.67;4.70;;;7.40;99.90;;;;;;10294308;28;20232;-89
2022/12/12 08:02:59;;;;;;;7.87;5.03;;;7.50;99.20;;;;;;10282056;28;20229;-90
2022/12/12 08:08:02;;;;;;;9.33;5.10;;;7.40;99.90;;;;;;10273699;28;20304;-90
2022/12/12 08:13:07;;;;;;;7.53;4.27;;;7.10;98.40;;;;;;10272847;28;20717;-90
2022/12/12 08:18:10;;;;;;;8.23;4.97;;;8.10;99.30;;;;;;10274356;28;20237;-90
2022/12/12 08:23:12;;;;;;;8.40;4.67;;;7.80;92.40;;;;;;10252097;28;20257;-88
2022/12/12 08:28:15;;;;;;;5.73;4.30;;;7.20;97.70;;;;;;10251433;29;20243;-90
2022/12/12 08:33:17;;;;;;;6.33;3.93;;;6.90;99.90;;;;;;10281342;28;20264;-89
2022/12/12 08:38:20;;;;;;;8.03;5.60;;;7.30;99.90;;;;;;10289981;28;20300;-90
2022/12/12 08:43:22;;;;;;;6.30;4.10;;;6.30;95.60;;;;;;10288943;28;20276;-89
2022/12/12 08:48:25;;;;;;;5.70;3.87;;;5.90;99.30;;;;;;10291022;28;20236;-90
2022/12/12 08:53:27;;;;;;;8.13;4.80;;;6.90;99.90;;;;;;10304913;28;20261;-89
2022/12/12 08:58:30;;;;;;;8.13;3.67;;;5.90;98.30;;;;;;10289648;28;20230;-91
2022/12/12 09:03:32;;;;;;;6.33;4.73;;;6.50;99.90;;;;;;10290303;28;20304;-89
2022/12/12 09:08:36;;;;;;;4.13;3.10;;;7.00;99.90;;;;;;10290268;28;20292;-89
2022/12/12 09:13:39;;;;;;;7.03;4.13;;;7.90;99.90;;;;;;10269238;28;20260;-88
2022/12/12 09:18:42;;;;;;;5.63;3.67;;;8.10;99.90;;;;;;10263417;28;20300;-89
2022/12/12 09:23:50;;;;;;;4.10;3.23;;;7.70;99.90;;;;;;10273080;28;20654;-88
2022/12/12 09:28:53;;;;;;;4.70;3.40;;;7.50;99.90;;;;;;10266403;28;20307;-89
2022/12/12 09:33:55;;;;;;;5.77;4.17;;;8.20;99.90;;;;;;10280189;28;20717;-88
2022/12/12 09:38:58;;;;;;;6.13;4.10;;;6.60;99.90;;;;;;10258933;28;20238;-90
2022/12/12 09:44:06;;;;;;;4.40;3.50;;;7.10;98.30;;;;;;10273924;28;20614;-90
2022/12/12 09:49:15;;;;;;;6.50;3.83;;;7.20;99.90;;;;;;10263563;28;20622;-90
2022/12/12 09:54:21;;;;;;;4.63;4.00;;;7.40;99.90;;;;;;10262263;28;20674;-90
2022/12/12 09:59:42;;;;;;;4.17;3.77;;;6.80;99.90;;;;;;10294454;28;20245;-90
2022/12/12 10:04:52;;;;;;;4.17;3.17;;;6.60;99.90;;;;;;10254550;28;20790;-91
2022/12/12 10:10:20;;;;;;;3.90;3.27;;;7.80;99.90;;;;;;10275988;28;20244;-91
2022/12/12 10:15:43;;;;;;;4.97;3.37;;;7.20;99.90;;;;;;10254083;28;20307;-91
2022/12/12 10:20:50;;;;;;;3.80;3.40;;;5.80;97.00;;;;;;10253625;28;20292;-91
2022/12/12 10:25:56;;;;;;;6.07;5.13;;;6.10;99.90;;;;;;10247990;28;20335;-91
2022/12/12 10:31:23;;;;;;;4.97;3.23;;;5.00;99.90;;;;;;10258377;28;20253;-93
2022/12/12 10:37:03;;;;;;;2.80;2.20;;;5.00;99.90;;;;;;10261248;28;20237;-91
2022/12/12 10:42:14;;;;;;;5.00;3.10;;;6.40;99.90;;;;;;10265514;28;20832;-91
2022/12/12 10:47:16;;;;;;;3.93;3.20;;;7.50;99.90;;;;;;10270279;28;20241;-91
2022/12/12 10:52:21;;;;;;;4.07;3.20;;;8.20;99.90;;;;;;10259965;28;20307;-91
2022/12/12 10:57:26;;;;;;;6.63;3.83;;;8.70;95.80;;;;;;10258730;28;20275;-90
2022/12/12 11:02:34;;;;;;;4.70;3.10;;;9.20;97.60;;;;;;10270333;28;20752;-91
2022/12/12 11:07:40;;;;;;;4.50;2.57;;;8.90;96.90;;;;;;10258532;28;20639;-90
2022/12/12 11:12:42;;;;;;;3.40;1.73;;;10.10;99.20;;;;;;10265454;28;20386;-90
2022/12/12 11:17:45;;;;;;;6.70;3.37;;;9.90;98.30;;;;;;10266268;28;20233;-90
2022/12/12 11:22:51;;;;;;;4.30;3.30;;;10.60;95.40;;;;;;10278042;28;20753;-90
2022/12/12 11:27:57;;;;;;;3.87;2.77;;;10.00;95.30;;;;;;10269939;28;20264;-89
2022/12/12 11:33:18;;;;;;;3.10;2.40;;;9.60;94.40;;;;;;10278353;28;20681;-90
2022/12/12 11:38:31;;;;;;;5.13;4.50;;;10.60;98.20;;;;;;10268197;28;20612;-89
2022/12/12 11:43:47;;;;;;;3.60;2.80;;;9.00;82.50;;;;;;10259557;28;20276;-91
2022/12/12 11:48:50;;;;;;;6.67;4.80;;;8.30;96.20;;;;;;10267085;28;20232;-91
2022/12/12 11:53:52;;;;;;;6.60;5.97;;;6.80;99.90;;;;;;10263865;28;20279;-90
2022/12/12 11:59:20;;;;;;;14.67;6.20;;;6.90;93.50;;;;;;10269215;28;20716;-90
2022/12/12 12:04:47;;;;;;;20.40;8.67;;;4.80;99.90;;;;;;10274476;28;20238;-91
2022/12/12 12:10:00;;;;;;;4.23;2.30;;;4.00;99.90;;;;;;10279522;28;20291;-91
2022/12/12 12:15:38;;;;;;;21.37;7.50;;;5.90;99.90;;;;;;10252166;28;20261;-92
2022/12/12 12:21:00;;;;;;;4.67;2.47;;;5.50;96.60;;;;;;10273937;28;20292;-91
2022/12/12 12:26:29;;;;;;;8.53;2.83;;;6.40;99.90;;;;;;10273450;28;20279;-92
2022/12/12 12:31:56;;;;;;;23.87;7.33;;;6.80;99.90;;;;;;10270134;28;20258;-92
2022/12/12 12:37:28;;;;;;;4.93;2.10;;;6.90;93.90;;;;;;10282207;28;20306;-93
2022/12/12 12:42:34;;;;;;;2.13;1.43;;;8.10;99.90;;;;;;10273541;28;20273;-91
2022/12/12 12:47:57;;;;;;;3.20;1.87;;;8.80;99.90;;;;;;10275511;28;20636;-91
2022/12/12 12:53:25;;;;;;;12.00;5.30;;;7.80;99.20;;;;;;10265531;28;20251;-91
2022/12/12 12:58:39;;;;;;;3.77;2.23;;;6.70;99.90;;;;;;10255105;28;20289;-92
2022/12/12 13:03:53;;;;;;;3.60;2.67;;;8.30;99.90;;;;;;10256607;28;20335;-92
2022/12/12 13:09:20;;;;;;;3.87;2.27;;;8.80;97.90;;;;;;10270415;28;20651;-92
2022/12/12 13:14:37;;;;;;;4.10;2.13;;;9.80;93.60;;;;;;10257256;28;20244;-91
2022/12/12 13:19:44;;;;;;;4.83;2.83;;;10.00;92.80;;;;;;10268665;28;20293;-92
2022/12/12 13:25:05;;;;;;;4.30;3.10;;;8.80;90.00;;;;;;10274447;28;20276;-92
2022/12/12 13:30:35;;;;;;;2.57;2.00;;;9.00;77.30;;;;;;10274932;28;20240;-92
2022/12/12 13:35:44;;;;;;;3.13;2.30;;;9.00;99.90;;;;;;10258290;28;20253;-92
2022/12/12 13:40:58;;;;;;;3.43;1.93;;;9.50;91.20;;;;;;10254573;28;20260;-93
2022/12/12 13:46:27;;;;;;;2.33;1.67;;;9.50;82.90;;;;;;10281081;28;20709;-92
2022/12/12 13:51:32;;;;;;;3.47;2.30;;;9.50;95.60;;;;;;10284284;28;20280;-92
2022/12/12 13:56:53;;;;;;;2.80;1.90;;;9.40;91.90;;;;;;10287697;28;20232;-94
2022/12/12 14:01:57;;;;;;;3.50;1.80;;;8.30;99.90;;;;;;10291838;28;20240;-93
2022/12/12 14:07:21;;;;;;;4.13;2.60;;;10.00;94.50;;;;;;10289445;28;20233;-94
2022/12/12 14:12:32;;;;;;;4.27;2.90;;;9.00;92.20;;;;;;10288091;28;20259;-94
2022/12/12 14:17:37;;;;;;;4.13;2.67;;;8.10;93.50;;;;;;10289073;28;20651;-93
2022/12/12 14:22:45;;;;;;;4.80;2.83;;;8.30;89.00;;;;;;10271918;28;20212;-94
2022/12/12 14:27:50;;;;;;;3.57;2.73;;;8.50;97.40;;;;;;10289682;28;20305;-94
2022/12/12 14:32:55;;;;;;;3.47;1.77;;;8.70;93.80;;;;;;10288618;28;20252;-94
2022/12/12 14:38:28;;;;;;;4.80;2.87;;;8.90;99.50;;;;;;10288451;28;20256;-93
2022/12/12 14:43:39;;;;;;;5.20;3.07;;;9.00;92.20;;;;;;10288398;28;20768;-95
2022/12/12 14:48:42;;;;;;;3.43;2.70;;;8.80;92.80;;;;;;10287180;28;20236;-94
2022/12/12 14:53:48;;;;;;;3.53;3.23;;;9.90;89.10;;;;;;10288353;28;20657;-94
2022/12/12 14:59:04;;;;;;;7.53;4.13;;;9.20;92.10;;;;;;10287942;28;20602;-94
2022/12/12 15:04:13;;;;;;;5.60;3.43;;;8.70;91.80;;;;;;10288017;28;20232;-95
2022/12/12 15:09:21;;;;;;;2.73;2.17;;;8.50;92.00;;;;;;10288167;28;20283;-94
2022/12/12 15:14:26;;;;;;;2.03;1.30;;;9.30;94.40;;;;;;10286248;28;20256;-88
2022/12/12 15:19:40;;;;;;;7.90;4.30;;;8.30;99.90;;;;;;10279584;28;20264;-85
2022/12/12 15:24:43;;;;;;;5.23;3.37;;;9.50;81.90;;;;;;10285995;28;20268;-86
2022/12/12 15:29:46;;;;;;;8.90;3.67;;;9.50;91.10;;;;;;10282026;28;20217;-86
2022/12/12 15:35:24;;;;;;;12.03;4.87;;;8.50;98.00;;;;;;10289706;28;20275;-85
2022/12/12 15:40:28;;;;;;;12.30;4.80;;;8.70;98.20;;;;;;10197401;29;20308;-85
2022/12/12 15:45:35;;;;;;;8.37;3.80;;;10.50;96.20;;;;;;10185278;29;20262;-85
2022/12/12 15:50:43;;;;;;;7.80;4.50;;;10.40;99.90;;;;;;10196595;29;20273;-85
2022/12/12 15:56:27;;;;;;;11.53;6.40;;;9.90;99.90;;;;;;10194266;29;20258;-86
2022/12/12 16:01:30;;;;;;;7.30;5.00;;;9.30;97.20;;;;;;10081100;29;20248;-86
2022/12/12 16:06:44;;;;;;;6.03;4.67;;;9.70;99.90;;;;;;10090298;29;20702;-86
2022/12/12 16:11:49;;;;;;;11.73;6.17;;;9.00;99.90;;;;;;10101052;29;20289;-83
2022/12/12 16:17:02;;;;;;;6.57;5.73;;;9.50;99.90;;;;;;10191394;29;20230;-84
2022/12/12 16:22:19;;;;;;;6.50;5.67;;;10.00;99.90;;;;;;10193105;29;20315;-84
2022/12/12 16:27:22;;;;;;;7.83;6.57;;;9.60;99.20;;;;;;9868281;29;10000089;-84
2022/12/12 16:32:25;;;;;;;7.20;3.77;;;10.00;98.40;;;;;;10202504;28;20260;-85
2022/12/12 16:37:27;;;;;;;5.07;3.60;;;10.30;99.90;;;;;;10289554;28;20291;-85
2022/12/12 16:42:30;;;;;;;7.43;6.10;;;11.10;99.90;;;;;;10288535;28;20326;-85
2022/12/12 16:47:32;;;;;;;8.60;4.97;;;10.80;99.90;;;;;;10288354;28;20233;-85
2022/12/12 16:52:35;;;;;;;2.70;2.10;;;10.40;99.90;;;;;;10286176;28;20710;-86
2022/12/12 16:57:37;;;;;;;7.27;5.67;;;11.60;99.90;;;;;;10289080;28;20676;-85
2022/12/12 17:02:40;;;;;;;7.13;4.80;;;10.90;99.90;;;;;;10286125;28;20248;-85
2022/12/12 17:07:42;;;;;;;6.00;4.00;;;11.50;99.90;;;;;;10279296;28;20234;-85
2022/12/12 17:12:45;;;;;;;6.93;5.07;;;10.90;99.90;;;;;;10284539;28;20260;-85
2022/12/12 17:17:47;;;;;;;6.97;5.60;;;10.90;99.90;;;;;;10289183;28;20292;-85
2022/12/12 17:22:53;;;;;;;14.80;5.43;;;10.80;99.90;;;;;;10256330;28;20237;-87
2022/12/12 17:27:55;;;;;;;11.57;8.27;;;10.90;65.10;;;;;;10270475;28;20213;-90
2022/12/12 17:32:58;;;;;;;12.87;8.20;;;;;;;;;;10289777;28;20257;-91
2022/12/12 17:38:19;;;;;;;19.03;10.67;;;2.10;99.90;;;;;;10278633;28;20228;-90
2022/12/12 17:43:23;;;;;;;14.33;10.87;;;0.90;99.90;;;;;;10281297;28;20266;-91
2022/12/12 17:48:31;;;;;;;14.40;11.17;;;0.40;99.90;;;;;;10272313;28;20239;-90
2022/12/12 17:53:36;;;;;;;16.10;11.03;;;0.20;99.90;;;;;;10278880;28;20245;-90
2022/12/12 17:58:42;;;;;;;17.40;12.27;;;-0.10;99.90;;;;;;10262584;28;20242;-89
2022/12/12 18:03:45;;;;;;;18.50;11.93;;;-0.30;99.90;;;;;;10281637;28;20241;-89
2022/12/12 18:08:49;;;;;;;22.70;11.93;;;-0.40;99.90;;;;;;10289725;28;20198;-89
2022/12/12 18:13:54;;;;;;;15.80;9.90;;;-0.50;99.90;;;;;;10273019;28;20237;-88
2022/12/12 18:18:58;;;;;;;14.37;8.40;;;-0.60;99.90;;;;;;10252415;28;20667;-89
2022/12/12 18:24:00;;;;;;;21.00;13.60;;;-0.60;99.90;;;;;;10266513;28;20274;-91
2022/12/12 18:29:05;;;;;;;13.43;9.93;;;-0.60;99.90;;;;;;10278196;28;20210;-93
2022/12/12 18:34:08;;;;;;;15.27;11.67;;;-0.60;99.90;;;;;;10267862;28;20272;-91
2022/12/12 18:39:10;;;;;;;20.67;12.30;;;-0.60;99.90;;;;;;10273601;28;20799;-94
2022/12/12 18:44:14;;;;;;;15.50;12.03;;;-0.60;99.90;;;;;;10266491;28;20273;-91
2022/12/12 18:49:17;;;;;;;16.73;12.90;;;-0.60;99.90;;;;;;10270586;28;20906;-91
2022/12/12 18:54:19;;;;;;;20.87;12.30;;;-0.60;99.90;;;;;;10273662;28;20292;-87
2022/12/12 18:59:22;;;;;;;18.40;13.43;;;-0.60;99.90;;;;;;10277010;28;20220;-87
2022/12/12 19:04:24;;;;;;;19.47;11.10;;;-0.60;99.90;;;;;;10261486;28;20218;-88
2022/12/12 19:09:53;;;;;;;19.17;12.37;;;-0.50;99.90;;;;;;10279904;28;20260;-90
2022/12/12 19:14:55;;;;;;;19.97;12.80;;;-0.60;99.90;;;;;;10286484;28;20711;-88
2022/12/12 19:20:17;;;;;;;23.87;14.57;;;-0.60;99.90;;;;;;10285454;28;20269;-90
2022/12/12 19:25:20;;;;;;;21.57;12.40;;;-0.60;99.90;;;;;;10299384;28;20244;-91
2022/12/12 19:30:26;;;;;;;20.80;13.57;;;-0.60;99.90;;;;;;10286031;28;20263;-86
2022/12/12 19:35:33;;;;;;;18.47;11.20;;;-0.70;99.90;;;;;;10296734;28;20226;-93
2022/12/12 19:40:38;;;;;;;20.03;11.77;;;;;;;;;;10293264;28;20237;-92
2022/12/12 19:45:40;;;;;;;18.00;12.40;;;-0.50;99.90;;;;;;10287693;28;20260;-89
2022/12/12 19:50:43;;;;;;;16.17;10.70;;;-0.60;99.90;;;;;;10283804;28;20206;-87
2022/12/12 19:55:46;;;;;;;19.00;12.17;;;-0.70;99.90;;;;;;10285462;28;20229;-85
2022/12/12 20:00:49;;;;;;;19.70;13.20;;;-0.70;99.90;;;;;;10301204;28;20217;-87
2022/12/12 20:06:00;;;;;;;21.90;12.50;;;-0.70;99.90;;;;;;10302221;28;20201;-86
2022/12/12 20:11:04;;;;;;;19.83;12.87;;;;;;;;;;10295546;28;20245;-87
2022/12/12 20:16:12;;;;;;;22.57;14.97;;;-0.80;99.90;;;;;;10301782;28;20229;-85
2022/12/12 20:21:21;;;;;;;56.30;29.33;;;-0.70;99.90;;;;;;10294937;28;20615;-89
2022/12/12 20:26:44;;;;;;;16.00;11.63;;;-0.70;99.90;;;;;;10288106;28;20741;-87
2022/12/12 20:31:49;;;;;;;14.90;11.90;;;-0.70;99.90;;;;;;10288872;28;20241;-87
2022/12/12 20:36:54;;;;;;;311.47;168.80;;;-0.70;99.90;;;;;;10263532;28;20281;-87
2022/12/12 20:41:57;;;;;;;612.33;343.40;;;-0.50;99.90;;;;;;10277560;28;20274;-87
2022/12/12 20:46:59;;;;;;;821.57;516.77;;;7.40;99.90;;;;;;10277114;28;20205;-86
2022/12/12 20:52:02;;;;;;;737.13;492.63;;;8.70;99.90;;;;;;10274652;28;20237;-86
2022/12/12 20:57:20;;;;;;;1008.97;620.00;;;8.80;95.60;;;;;;10273370;28;20253;-85
2022/12/12 21:02:23;;;;;;;13.33;10.77;;;9.60;91.30;;;;;;10276297;28;20206;-87
2022/12/12 21:07:31;;;;;;;87.03;51.40;;;6.10;72.80;;;;;;10271338;28;20214;-87
2022/12/12 21:12:34;;;;;;;756.67;448.77;;;2.80;99.90;;;;;;10282087;28;20679;-87
2022/12/12 21:17:37;;;;;;;172.63;104.70;;;5.70;99.90;;;;;;10279893;28;20710;-86
2022/12/12 21:22:39;;;;;;;15.67;12.23;;;7.40;80.40;;;;;;10294022;28;20563;-87
2022/12/12 21:27:42;;;;;;;14.47;10.67;;;6.10;71.60;;;;;;10293899;28;20279;-84
2022/12/12 21:32:45;;;;;;;13.30;10.60;;;1.50;99.90;;;;;;10291914;28;20874;-89
2022/12/12 21:37:47;;;;;;;36.57;18.03;;;0.20;99.90;;;;;;10291009;28;20206;-94
2022/12/12 21:42:50;;;;;;;18.77;10.43;;;0.80;99.90;;;;;;10290899;28;20241;-89
2022/12/12 21:47:52;;;;;;;27.00;16.90;;;4.70;99.90;;;;;;10283380;28;20685;-90
2022/12/12 21:58:16;;;;;;;21.63;13.23;;;9.10;83.50;;;;;;10299773;28;20228;-94
2022/12/12 22:03:19;;;;;;;21.53;13.17;;;9.40;63.90;;;;;;10304189;28;20233;-94
2022/12/12 22:08:22;;;;;;;15.27;9.30;;;8.90;81.40;;;;;;10299341;28;20277;-95
2022/12/12 22:13:26;;;;;;;21.00;12.73;;;9.50;78.80;;;;;;10323370;28;20239;-95
2022/12/12 22:18:30;;;;;;;16.50;9.13;;;9.90;64.60;;;;;;10336618;28;20207;-95
2022/12/12 22:23:39;;;;;;;18.63;12.13;;;10.00;73.70;;;;;;10308229;28;20277;-95
2022/12/12 22:28:50;;;;;;;15.33;9.90;;;9.50;79.70;;;;;;10330630;28;20215;-95
2022/12/12 22:33:59;;;;;;;12.07;7.80;;;10.30;68.60;;;;;;10310131;28;20224;-94
2022/12/12 22:39:16;;;;;;;14.37;9.27;;;8.60;63.70;;;;;;10321163;28;20274;-94
2022/12/12 22:44:35;;;;;;;12.13;7.20;;;9.60;73.30;;;;;;10316929;28;20205;-93
2022/12/12 22:50:06;;;;;;;38.17;21.00;;;4.10;74.20;;;;;;10334669;28;20228;-95
2022/12/12 22:55:32;;;;;;;36.13;20.13;;;6.80;99.90;;;;;;10329185;28;20230;-95
2022/12/12 23:00:39;;;;;;;40.50;20.37;;;9.50;94.60;;;;;;10300901;28;20216;-95
2022/12/12 23:06:17;;;;;;;36.57;19.10;;;9.70;96.50;;;;;;10304717;28;20580;-91
2022/12/12 23:11:22;;;;;;;26.50;15.63;;;10.40;84.40;;;;;;10296233;28;20253;-92
2022/12/12 23:16:29;;;;;;;24.67;14.87;;;10.90;86.30;;;;;;10298780;28;20287;-91
2022/12/12 23:21:34;;;;;;;20.30;12.67;;;10.80;67.10;;;;;;10294709;28;20213;-92
2022/12/12 23:26:37;;;;;;;25.33;15.70;;;10.10;81.50;;;;;;10293956;28;20232;-92
2022/12/12 23:31:39;;;;;;;23.70;14.60;;;9.50;93.50;;;;;;10293954;28;20719;-92
2022/12/12 23:36:42;;;;;;;26.43;16.17;;;10.60;91.30;;;;;;10297914;28;20231;-93
2022/12/12 23:41:45;;;;;;;29.63;15.27;;;10.10;87.00;;;;;;10306141;28;20237;-95
2022/12/12 23:46:48;;;;;;;23.80;13.07;;;11.00;92.10;;;;;;10321079;28;20208;-93
2022/12/12 23:51:56;;;;;;;19.80;13.77;;;10.20;95.00;;;;;;10320513;28;20208;-93
2022/12/12 23:57:00;;;;;;;24.67;15.70;;;10.70;79.70;;;;;;10315433;28;20654;-93
